createdAt,value
2022-10-01T00:00:02.505Z,9.9
2022-10-01T00:05:01.729Z,9.6
2022-10-01T00:10:01.842Z,8.8
2022-10-01T00:15:13.978Z,8.6
2022-10-01T00:20:01.729Z,8.5
2022-10-01T00:30:03.948Z,9.1
2022-10-01T00:35:01.749Z,9.9
2022-10-01T00:40:01.707Z,10.9
2022-10-01T00:45:02.562Z,11.6
2022-10-01T00:50:01.916Z,12.1
2022-10-01T00:55:01.801Z,12.4
2022-10-01T01:00:04.558Z,12.7
2022-10-01T01:05:01.611Z,12.4
2022-10-01T01:10:01.791Z,12.3
2022-10-01T01:15:11.935Z,12.4
2022-10-01T01:20:01.717Z,12.2
2022-10-01T01:25:01.618Z,12.7
2022-10-01T01:30:10.972Z,13.4
2022-10-01T01:35:01.931Z,13.6
2022-10-01T01:40:01.715Z,13.9
2022-10-01T01:45:03.470Z,14.7
2022-10-01T01:50:01.712Z,14.5
2022-10-01T01:55:01.737Z,14.0
2022-10-01T02:00:03.054Z,13.9
2022-10-01T02:05:01.787Z,13.6
2022-10-01T02:10:01.685Z,12.3
2022-10-01T02:15:07.933Z,12.5
2022-10-01T02:20:01.641Z,12.4
2022-10-01T02:25:01.871Z,12.2
2022-10-01T02:30:05.386Z,12.1
2022-10-01T02:35:01.863Z,12.6
2022-10-01T02:45:03.473Z,12.6
2022-10-01T02:50:01.698Z,12.8
2022-10-01T02:55:07.038Z,14.1
2022-10-01T03:00:07.612Z,14.4
2022-10-01T03:05:01.738Z,15.0
2022-10-01T03:10:01.738Z,15.5
2022-10-01T03:15:02.720Z,15.6
2022-10-01T03:20:01.638Z,15.1
2022-10-01T03:25:01.867Z,15.9
2022-10-01T03:30:02.566Z,15.6
2022-10-01T03:40:01.830Z,15.7
2022-10-01T03:45:02.238Z,15.9
2022-10-01T03:50:01.829Z,15.7
2022-10-01T03:55:01.719Z,16.1
2022-10-01T04:00:03.494Z,16.2
2022-10-01T04:05:01.734Z,16.4
2022-10-01T04:10:01.716Z,15.6
2022-10-01T04:15:02.343Z,15.5
2022-10-01T04:20:01.641Z,15.7
2022-10-01T04:25:01.911Z,15.2
2022-10-01T04:30:03.307Z,14.3
2022-10-01T04:35:01.715Z,14.2
2022-10-01T04:40:01.816Z,14.2
2022-10-01T04:45:02.259Z,14.0
2022-10-01T04:55:01.808Z,14.4
2022-10-01T05:00:02.741Z,14.6
2022-10-01T05:05:03.426Z,14.4
2022-10-01T05:10:01.719Z,13.8
2022-10-01T05:15:02.300Z,14.3
2022-10-01T05:20:01.769Z,14.1
2022-10-01T05:25:01.966Z,14.3
2022-10-01T05:30:02.734Z,14.2
2022-10-01T05:35:03.234Z,14.5
2022-10-01T05:40:01.890Z,14.9
2022-10-01T05:45:02.313Z,15.5
2022-10-01T05:50:01.679Z,15.5
2022-10-01T05:55:01.709Z,15.4
2022-10-01T06:00:02.471Z,14.8
2022-10-01T06:05:01.716Z,14.7
2022-10-01T06:10:02.242Z,14.4
2022-10-01T06:15:02.202Z,14.3
2022-10-01T06:20:01.648Z,14.4
2022-10-01T06:25:01.518Z,14.7
2022-10-01T06:30:02.630Z,13.7
2022-10-01T06:35:01.457Z,13.0
2022-10-01T06:40:01.523Z,12.8
2022-10-01T06:45:05.339Z,12.7
2022-10-01T06:50:01.490Z,12.6
2022-10-01T06:55:02.004Z,12.7
2022-10-01T07:00:02.805Z,13.2
2022-10-01T07:05:01.663Z,13.3
2022-10-01T07:10:01.810Z,13.7
2022-10-01T07:15:03.482Z,14.0
2022-10-01T07:20:01.905Z,14.3
2022-10-01T07:25:02.394Z,14.1
2022-10-01T07:30:03.797Z,13.8
2022-10-01T07:35:01.716Z,13.6
2022-10-01T07:40:07.915Z,14.2
2022-10-01T07:45:02.209Z,13.9
2022-10-01T07:50:01.748Z,14.2
2022-10-01T07:55:01.752Z,15.6
2022-10-01T08:00:02.278Z,16.4
2022-10-01T08:05:01.720Z,16.5
2022-10-01T08:10:07.238Z,17.5
2022-10-01T08:15:02.240Z,17.4
2022-10-01T08:20:01.773Z,16.4
2022-10-01T08:25:01.963Z,15.1
2022-10-01T08:30:02.441Z,13.6
2022-10-01T08:35:01.725Z,12.3
2022-10-01T08:40:01.889Z,11.2
2022-10-01T08:45:12.060Z,10.4
2022-10-01T08:50:01.651Z,9.7
2022-10-01T08:55:01.636Z,8.9
2022-10-01T09:00:05.099Z,9.0
2022-10-01T09:05:03.118Z,9.5
2022-10-01T09:10:17.390Z,10.5
2022-10-01T09:15:15.835Z,11.2
2022-10-01T09:20:01.757Z,11.2
2022-10-01T09:25:10.679Z,11.5
2022-10-01T09:30:06.639Z,11.5
2022-10-01T09:35:04.997Z,10.9
2022-10-01T09:40:01.646Z,10.6
2022-10-01T09:45:02.214Z,11.4
2022-10-01T09:50:01.735Z,10.2
2022-10-01T09:55:01.829Z,8.6
2022-10-01T10:00:06.917Z,7.1
2022-10-01T10:05:01.740Z,5.4
2022-10-01T10:10:01.584Z,3.7
2022-10-01T10:15:07.588Z,3.2
2022-10-01T10:20:01.683Z,2.7
2022-10-01T10:25:10.774Z,2.4
2022-10-01T10:30:05.256Z,2.3
2022-10-01T10:35:06.675Z,2.1
2022-10-01T10:40:01.739Z,1.9
2022-10-01T10:45:02.485Z,1.8
2022-10-01T10:50:04.469Z,2.0
2022-10-01T11:00:06.090Z,2.2
2022-10-01T11:10:01.766Z,2.6
2022-10-01T11:15:17.384Z,2.4
2022-10-01T11:20:01.578Z,2.2
2022-10-01T11:25:01.689Z,2.0
2022-10-01T11:30:17.335Z,2.1
2022-10-01T11:35:01.720Z,2.2
2022-10-01T11:45:13.208Z,2.4
2022-10-01T11:50:01.794Z,2.8
2022-10-01T11:55:01.845Z,2.6
2022-10-01T12:00:06.163Z,2.4
2022-10-01T12:05:06.941Z,2.3
2022-10-01T12:15:13.282Z,2.0
2022-10-01T12:25:01.438Z,2.0
2022-10-01T12:30:17.069Z,1.9
2022-10-01T12:35:01.748Z,1.8
2022-10-01T12:40:01.676Z,1.8
2022-10-01T12:45:16.763Z,2.0
2022-10-01T12:50:02.050Z,2.2
2022-10-01T12:55:01.603Z,2.2
2022-10-01T13:00:17.421Z,2.2
2022-10-01T13:05:01.488Z,1.8
2022-10-01T13:10:01.801Z,1.4
2022-10-01T13:15:03.569Z,0.9
2022-10-01T13:20:01.847Z,0.5
2022-10-01T13:25:01.987Z,0.5
2022-10-01T13:30:05.334Z,0.6
2022-10-01T13:35:01.736Z,0.4
2022-10-01T13:40:01.543Z,0.4
2022-10-01T13:45:04.470Z,0.4
2022-10-01T13:50:01.204Z,0.4
2022-10-01T13:55:01.752Z,0.4
2022-10-01T14:00:17.339Z,0.6
2022-10-01T14:15:13.003Z,0.4
2022-10-01T14:20:01.857Z,0.2
2022-10-01T14:25:01.992Z,0.0
2022-10-01T14:30:05.593Z,0.0
2022-10-01T14:35:01.759Z,0.0
2022-10-01T14:40:01.812Z,0.0
2022-10-01T14:51:01.779Z,0.0
2022-10-01T14:56:06.776Z,0.0
2022-10-01T15:01:01.755Z,0.0
2022-10-01T15:06:01.745Z,0.0
2022-10-01T15:21:01.904Z,0.2
2022-10-01T15:26:01.925Z,0.4
2022-10-01T15:36:01.862Z,0.6
2022-10-01T15:51:01.694Z,0.2
2022-10-01T15:56:01.825Z,0.3
2022-10-01T16:01:02.254Z,0.2
2022-10-01T16:06:02.171Z,1.0
2022-10-01T16:11:01.969Z,1.8
2022-10-01T16:16:02.097Z,2.2
2022-10-01T16:21:01.846Z,3.0
2022-10-01T16:26:01.747Z,4.0
2022-10-01T16:31:03.077Z,3.8
2022-10-01T16:36:10.251Z,3.0
2022-10-01T16:41:01.805Z,2.7
2022-10-01T16:46:01.977Z,2.8
2022-10-01T16:51:01.778Z,2.0
2022-10-01T16:56:01.794Z,1.7
2022-10-01T17:01:02.050Z,1.9
2022-10-01T17:06:01.720Z,2.2
2022-10-01T17:11:01.759Z,1.5
2022-10-01T17:16:02.026Z,1.2
2022-10-01T17:21:01.830Z,1.0
2022-10-01T17:26:01.729Z,0.8
2022-10-01T17:31:01.756Z,0.8
2022-10-01T17:36:01.779Z,0.8
2022-10-01T17:41:01.746Z,1.0
2022-10-01T17:51:01.798Z,1.2
2022-10-01T17:56:01.734Z,1.0
2022-10-01T18:01:02.109Z,1.0
2022-10-01T18:06:01.639Z,1.0
2022-10-01T18:11:01.886Z,0.8
2022-10-01T18:16:02.092Z,0.6
2022-10-01T18:21:01.724Z,0.4
2022-10-01T18:26:01.756Z,0.4
2022-10-01T18:31:01.740Z,0.4
2022-10-01T18:46:14.313Z,0.7
2022-10-01T18:51:01.730Z,0.7
2022-10-01T18:56:01.734Z,0.9
2022-10-01T19:01:02.241Z,1.1
2022-10-01T19:11:01.891Z,1.4
2022-10-01T19:16:01.816Z,1.3
2022-10-01T19:31:01.587Z,0.9
2022-10-01T19:36:01.731Z,0.9
2022-10-01T19:41:01.653Z,0.9
2022-10-01T19:46:01.677Z,1.0
2022-10-01T19:51:01.652Z,1.2
2022-10-01T20:06:05.152Z,0.9
2022-10-01T20:11:01.681Z,0.9
2022-10-01T20:16:01.757Z,0.9
2022-10-01T20:21:01.641Z,1.0
2022-10-01T20:26:01.744Z,1.0
2022-10-01T20:36:01.346Z,1.2
2022-10-01T20:41:01.528Z,1.4
2022-10-01T20:56:01.834Z,1.2
2022-10-01T21:01:01.780Z,1.4
2022-10-01T21:06:05.854Z,1.2
2022-10-01T21:11:01.650Z,1.4
2022-10-01T21:16:01.793Z,1.6
2022-10-01T21:21:01.713Z,1.6
2022-10-01T21:26:01.753Z,1.2
2022-10-01T21:31:01.772Z,1.4
2022-10-01T21:46:01.899Z,1.2
2022-10-01T21:51:01.778Z,1.4
2022-10-01T22:01:01.989Z,1.5
2022-10-01T22:11:02.093Z,1.4
2022-10-01T22:16:02.104Z,1.3
2022-10-01T22:26:01.768Z,1.3
2022-10-01T22:31:01.697Z,1.3
2022-10-01T22:46:01.997Z,1.6
2022-10-01T22:51:01.900Z,1.6
2022-10-01T22:56:01.761Z,1.6
2022-10-01T23:01:02.251Z,1.6
2022-10-01T23:06:07.845Z,1.5
2022-10-01T23:11:01.768Z,1.5
2022-10-01T23:16:02.293Z,1.3
2022-10-01T23:21:01.704Z,1.1
2022-10-01T23:26:01.965Z,1.5
2022-10-01T23:31:14.722Z,1.4
2022-10-01T23:36:01.743Z,1.4
2022-10-01T23:41:01.670Z,1.4
2022-10-01T23:46:02.031Z,1.6
2022-10-01T23:56:01.732Z,1.9
